Terminal Aerodrome Forecast
Issued by NWS

Home | Current Version | Previous Version | Text Only | Print | Product List | Glossary On
Versions: 1 2 3 4 5 6 7 8 9 10 11 12 13 14 15 16 17 18 19 20
000
FTUS43 KMQT 011737
TAFSAW
TAF
KSAW 011737Z 0118/0218 02017G25KT 1SM -SHSN BLSN OVC012
     FM012000 36015G22KT 5SM -SHSN BLSN OVC015
     FM020000 35011KT P6SM OVC020
     FM020500 34007KT P6SM OVC025
     FM021100 32004KT P6SM -SHSN BKN035
     FM021400 33006KT P6SM BKN030=

USA.gov is the U.S. government's official web portal to all federal, state and local government web resources and services.